createdAt,value
2022-08-19T00:04:00.656Z,80.10
2022-08-19T00:10:32.501Z,80.10
2022-08-19T00:15:35.142Z,80.70
2022-08-19T00:20:38.117Z,80.60
2022-08-19T00:25:42.144Z,80.50
2022-08-19T00:30:45.618Z,80.70
2022-08-19T00:35:48.636Z,80.80
2022-08-19T00:41:00.247Z,80.80
2022-08-19T00:46:02.943Z,80.80
2022-08-19T00:51:06.890Z,80.80
2022-08-19T00:56:11.559Z,80.70
2022-08-19T01:01:14.224Z,80.90
2022-08-19T01:06:19.156Z,81.10
2022-08-19T01:11:24.950Z,81.30
2022-08-19T01:16:30.053Z,81.20
2022-08-19T01:21:35.888Z,81.10
2022-08-19T01:26:43.407Z,81.20
2022-08-19T01:31:46.290Z,81.10
2022-08-19T01:36:49.423Z,81.20
2022-08-19T01:41:53.602Z,81.40
2022-08-19T01:46:56.699Z,81.40
2022-08-19T01:52:01.927Z,81.10
2022-08-19T01:57:11.744Z,81.20
2022-08-19T02:02:14.172Z,81.40
2022-08-19T02:07:16.928Z,81.30
2022-08-19T02:12:20.922Z,81.30
2022-08-19T02:17:23.303Z,81.50
2022-08-19T02:22:26.792Z,81.50
2022-08-19T02:27:30.696Z,81.60
2022-08-19T02:32:33.206Z,81.70
2022-08-19T02:37:36.969Z,81.60
2022-08-19T02:42:41.042Z,81.60
2022-08-19T02:47:43.517Z,81.60
2022-08-19T02:52:46.046Z,81.80
2022-08-19T02:57:50.372Z,81.80
2022-08-19T03:02:53.017Z,82.00
2022-08-19T03:07:55.639Z,81.90
2022-08-19T03:12:59.975Z,82.10
2022-08-19T03:18:07.165Z,82.30
2022-08-19T03:23:11.909Z,82.30
2022-08-19T03:28:16.646Z,82.30
2022-08-19T03:33:28.565Z,82.30
2022-08-19T03:38:31.924Z,81.90
2022-08-19T03:43:37.515Z,81.80
2022-08-19T03:48:41.081Z,82.10
2022-08-19T03:53:43.601Z,82.30
2022-08-19T03:58:47.981Z,82.20
2022-08-19T04:03:50.983Z,82.00
2022-08-19T04:08:55.292Z,82.30
2022-08-19T04:14:00.346Z,82.70
2022-08-19T04:19:07.954Z,83.00
2022-08-19T04:24:11.064Z,83.30
2022-08-19T04:29:17.330Z,83.30
2022-08-19T04:34:22.087Z,83.20
2022-08-19T04:39:27.049Z,83.20
2022-08-19T04:44:33.083Z,83.30
2022-08-19T04:49:35.853Z,83.50
2022-08-19T04:54:39.467Z,83.30
2022-08-19T04:59:44.295Z,83.20
2022-08-19T05:04:46.926Z,83.50
2022-08-19T05:09:58.037Z,83.60
2022-08-19T05:15:09.142Z,83.60
2022-08-19T05:20:12.231Z,84.00
2022-08-19T05:25:18.474Z,83.70
2022-08-19T05:30:33.583Z,83.30
2022-08-19T05:35:45.523Z,83.10
2022-08-19T05:40:48.088Z,82.80
2022-08-19T05:45:52.476Z,83.00
2022-08-19T05:50:54.879Z,83.40
2022-08-19T05:55:57.593Z,83.60
2022-08-19T06:01:04.111Z,82.10
2022-08-19T06:06:07.295Z,82.70
2022-08-19T06:11:22.349Z,83.70
2022-08-19T06:16:26.567Z,84.10
2022-08-19T06:21:30.948Z,85.70
2022-08-19T06:26:34.445Z,85.70
2022-08-19T06:31:41.993Z,84.90
2022-08-19T06:36:47.012Z,83.10
2022-08-19T06:41:55.464Z,80.20
2022-08-19T06:47:09.405Z,79.70
2022-08-19T06:52:13.899Z,77.80
2022-08-19T06:57:16.701Z,77.20
2022-08-19T07:02:21.938Z,77.00
2022-08-19T07:07:24.960Z,74.10
2022-08-19T07:12:29.672Z,73.00
2022-08-19T07:17:34.832Z,70.60
2022-08-19T07:22:39.032Z,71.60
2022-08-19T07:27:41.513Z,67.60
2022-08-19T07:32:50.289Z,65.00
2022-08-19T07:37:53.392Z,62.90
2022-08-19T07:42:56.141Z,62.20
2022-08-19T07:48:00.480Z,61.50
2022-08-19T07:53:03.360Z,60.90
2022-08-19T07:58:06.143Z,61.70
2022-08-19T08:03:10.983Z,62.10
2022-08-19T08:08:14.139Z,61.00
2022-08-19T08:13:16.698Z,62.00
2022-08-19T08:18:20.827Z,60.80
2022-08-19T08:23:23.489Z,61.30
2022-08-19T08:28:29.610Z,61.00
2022-08-19T08:33:35.248Z,60.10
2022-08-19T08:38:40.896Z,59.50
2022-08-19T08:43:46.858Z,58.20
2022-08-19T08:48:55.334Z,59.60
2022-08-19T08:53:58.323Z,57.50
2022-08-19T08:59:05.578Z,58.70
2022-08-19T09:04:11.203Z,58.50
2022-08-19T09:09:19.980Z,55.70
2022-08-19T09:14:52.219Z,58.00
2022-08-19T09:19:58.980Z,57.40
2022-08-19T09:25:01.556Z,57.00
2022-08-19T09:30:04.524Z,57.70
2022-08-19T09:35:09.746Z,59.20
2022-08-19T09:40:13.749Z,60.20
2022-08-19T09:45:17.999Z,60.00
2022-08-19T09:50:23.171Z,57.20
2022-08-19T09:55:31.648Z,57.50
2022-08-19T10:00:35.381Z,58.60
2022-08-19T10:05:42.312Z,58.50
2022-08-19T10:10:47.040Z,57.00
2022-08-19T10:15:50.870Z,56.00
2022-08-19T10:21:05.901Z,55.40
2022-08-19T10:26:09.687Z,55.50
2022-08-19T10:31:16.167Z,55.80
2022-08-19T10:36:25.841Z,55.30
2022-08-19T10:41:31.037Z,55.00
2022-08-19T10:46:36.274Z,54.10
2022-08-19T10:51:47.798Z,53.60
2022-08-19T10:56:50.846Z,52.50
2022-08-19T11:01:53.461Z,51.10
2022-08-19T11:06:59.939Z,50.50
2022-08-19T11:12:05.024Z,50.70
2022-08-19T11:17:07.821Z,50.90
2022-08-19T11:22:11.805Z,50.90
2022-08-19T11:27:18.808Z,48.90
2022-08-19T11:32:21.547Z,47.60
2022-08-19T11:37:25.508Z,46.40
2022-08-19T11:42:28.199Z,46.90
2022-08-19T11:47:31.742Z,46.20
2022-08-19T11:52:35.702Z,46.30
2022-08-19T11:57:38.471Z,45.40
2022-08-19T12:02:41.999Z,45.40
2022-08-19T12:07:45.858Z,44.80
2022-08-19T12:12:58.499Z,44.10
2022-08-19T12:18:01.414Z,43.80
2022-08-19T12:23:09.007Z,44.10
2022-08-19T12:28:11.440Z,44.30
2022-08-19T12:33:14.031Z,43.50
2022-08-19T12:38:18.312Z,43.40
2022-08-19T12:43:20.732Z,43.50
2022-08-19T12:48:33.274Z,43.90
2022-08-19T12:53:39.385Z,44.70
2022-08-19T12:58:48.783Z,44.30
2022-08-19T13:03:53.270Z,44.90
2022-08-19T13:08:59.630Z,43.80
2022-08-19T13:14:03.134Z,43.00
2022-08-19T13:19:05.753Z,43.80
2022-08-19T13:24:09.778Z,44.00
2022-08-19T13:29:12.352Z,44.60
2022-08-19T13:34:17.201Z,45.70
2022-08-19T13:39:21.151Z,46.50
2022-08-19T13:44:26.482Z,46.80
2022-08-19T13:49:29.738Z,47.20
2022-08-19T13:54:33.793Z,45.90
2022-08-19T13:59:36.259Z,45.90
2022-08-19T14:04:38.796Z,46.30
2022-08-19T14:09:42.804Z,46.70
2022-08-19T14:14:48.795Z,46.60
2022-08-19T14:19:51.238Z,47.60
2022-08-19T14:24:55.220Z,46.50
2022-08-19T14:29:57.738Z,46.80
2022-08-19T14:35:00.354Z,46.80
2022-08-19T14:40:05.984Z,46.00
2022-08-19T14:45:10.441Z,45.50
2022-08-19T14:50:18.605Z,46.00
2022-08-19T14:55:22.828Z,46.10
2022-08-19T15:00:26.343Z,46.20
2022-08-19T15:05:28.756Z,46.90
2022-08-19T15:10:32.882Z,46.10
2022-08-19T15:15:35.493Z,46.10
2022-08-19T15:20:38.008Z,45.90
2022-08-19T15:25:42.417Z,45.70
2022-08-19T15:30:45.338Z,45.80
2022-08-19T15:35:49.027Z,45.60
2022-08-19T15:40:53.552Z,45.70
2022-08-19T15:45:55.924Z,45.70
2022-08-19T15:50:58.446Z,45.90
2022-08-19T15:56:03.120Z,45.90
2022-08-19T16:01:12.774Z,46.10
2022-08-19T16:06:15.394Z,46.70
2022-08-19T16:11:22.480Z,47.10
2022-08-19T16:16:27.978Z,47.80
2022-08-19T16:21:37.876Z,48.30
2022-08-19T16:26:45.616Z,48.70
2022-08-19T16:31:48.155Z,49.70
2022-08-19T16:36:51.120Z,50.30
2022-08-19T16:41:55.292Z,51.10
2022-08-19T16:46:59.116Z,51.90
2022-08-19T16:52:02.269Z,52.50
2022-08-19T16:57:06.728Z,53.10
2022-08-19T17:02:14.464Z,53.90
2022-08-19T17:07:16.864Z,53.40
2022-08-19T17:12:20.792Z,54.40
2022-08-19T17:17:27.028Z,55.00
2022-08-19T17:22:31.691Z,55.20
2022-08-19T17:27:36.415Z,55.40
2022-08-19T17:32:39.061Z,55.80
2022-08-19T17:37:41.551Z,55.70
2022-08-19T17:42:46.011Z,55.90
2022-08-19T17:47:48.806Z,56.10
2022-08-19T17:52:51.544Z,56.10
2022-08-19T17:57:57.516Z,56.30
2022-08-19T18:03:01.812Z,56.60
2022-08-19T18:08:04.873Z,56.50
2022-08-19T18:13:16.989Z,56.60
2022-08-19T18:18:20.051Z,56.80
2022-08-19T18:23:41.507Z,56.90
2022-08-19T18:28:49.868Z,57.30
2022-08-19T18:33:52.678Z,57.70
2022-08-19T18:38:55.220Z,57.70
2022-08-19T18:43:59.341Z,58.00
2022-08-19T18:49:01.899Z,58.30
2022-08-19T18:54:04.739Z,58.40
2022-08-19T18:59:08.739Z,58.50
2022-08-19T19:04:11.199Z,59.00
2022-08-19T19:09:16.191Z,59.50
2022-08-19T19:14:46.035Z,59.40
2022-08-19T19:19:51.119Z,60.00
2022-08-19T19:24:58.941Z,59.50
2022-08-19T19:30:09.431Z,59.80
2022-08-19T19:35:21.359Z,60.20
2022-08-19T19:40:24.483Z,60.60
2022-08-19T19:45:28.738Z,60.60
2022-08-19T19:50:31.600Z,61.00
2022-08-19T19:55:34.179Z,61.40
2022-08-19T20:00:38.273Z,61.80
2022-08-19T20:05:40.973Z,62.60
2022-08-19T20:10:44.343Z,62.80
2022-08-19T20:15:48.717Z,63.10
2022-08-19T20:20:51.910Z,63.50
2022-08-19T20:25:54.473Z,63.70
2022-08-19T20:30:58.500Z,64.00
2022-08-19T20:36:01.237Z,64.70
2022-08-19T20:41:04.061Z,64.50
2022-08-19T20:46:07.994Z,64.70
2022-08-19T20:51:12.773Z,65.20
2022-08-19T20:56:16.372Z,65.10
2022-08-19T21:01:20.678Z,65.20
2022-08-19T21:06:23.322Z,65.60
2022-08-19T21:11:25.912Z,65.70
2022-08-19T21:16:29.872Z,65.90
2022-08-19T21:21:33.040Z,66.40
2022-08-19T21:26:35.651Z,66.50
2022-08-19T21:31:39.600Z,66.80
2022-08-19T21:36:42.240Z,67.40
2022-08-19T21:41:44.732Z,67.30
2022-08-19T21:46:50.565Z,67.50
2022-08-19T21:51:53.284Z,67.80
2022-08-19T21:56:56.012Z,67.50
2022-08-19T22:02:19.223Z,67.60
2022-08-19T22:07:22.978Z,68.00
2022-08-19T22:12:28.827Z,68.20
2022-08-19T22:17:33.183Z,68.50
2022-08-19T22:22:36.495Z,68.40
2022-08-19T22:27:38.951Z,69.30
2022-08-19T22:32:47.266Z,68.60
2022-08-19T22:37:49.759Z,69.10
2022-08-19T22:42:57.980Z,68.70
2022-08-19T22:48:02.518Z,69.70
2022-08-19T22:53:07.062Z,69.40
2022-08-19T22:58:09.480Z,69.20
2022-08-19T23:03:13.708Z,69.40
2022-08-19T23:08:16.204Z,69.90
2022-08-19T23:13:19.701Z,69.80
2022-08-19T23:18:23.613Z,70.10
2022-08-19T23:23:26.308Z,70.40
2022-08-19T23:28:29.354Z,70.70
2022-08-19T23:33:50.946Z,71.30
2022-08-19T23:38:54.901Z,72.00
2022-08-19T23:43:57.305Z,71.60
2022-08-19T23:49:04.400Z,71.90
2022-08-19T23:54:06.931Z,72.20
2022-08-19T23:59:09.287Z,72.00
